Terminal Aerodrome Forecast
Issued by NWS Mobile, AL

Home | Current Version | Previous Version | Text Only | Print | Product List | Glossary On
Versions: 1 2 3 4 5 6 7 8 9 10 11 12 13 14 15 16 17 18 19 20 21 22 23 24 25 26 27 28 29 30 31 32 33 34 35 36
000
FTUS44 KMOB 262348
TAFMOB
TAF
KMOB 262348Z 2700/2724 14005KT P6SM BKN120
     FM270900 13002KT 4SM BR VCSH BKN015 BKN100
     FM271400 13005KT P6SM VCSH SCT030 BKN100 PROB30 2714/2720 5SM
      -TSRA BKN025CB=

USA.gov is the U.S. government's official web portal to all federal, state and local government web resources and services.